Auckland International Airport
NZAA : now visible

Airfield :











YOU CAN JOIN US ON...

 
LOGIN :

Register | Disclaimer

   EN    FR    IT 

 









Legend :    VFR   Marginal VFR   IFR   Intensive IFR   Very Intensive IFR
Visi :
Ceiling :
>= 8 km
>= 3000ft
5 to 8 km
1000 to 3000 ft
1500m to 5 km
500 to 1000 ft
800 to 1500m
200 to 500 ft
< 800m
< 200 ft
Symbols :   Thunderstorms  Fog  Heavy snow  Heavy precipitations  Wind > 20 kt






- Airport Elevation : 23 ft
- IATA code : AKL


NZAA - Auckland International

CURRENT METAR :
  • 060000Z AUTO 35006KT 290V040 7000 RA FEW021/// BKN033/// OVC095/// 11/10 Q0994 RERA BECMG 9999 -SHRA TEMPO 5000 SHRA SCT030CB

EXPIRED METARs :
  • 052330Z AUTO 32003KT 5000 RA HZ FEW037/// BKN055/// OVC065/// 11/10 Q0994 RERA BECMG 9999 TEMPO 5000 SHRA SCT030CB
  • 052300Z AUTO 35008KT 9999 -RA FEW032/// BKN065/// 11/10 Q0994 TEMPO 6000 SHRA SCT030CB
  • 052230Z AUTO 36008KT 320V030 9999 FEW040/// BKN060/// 11/10 Q0994 TEMPO 5000 SHRA SCT030CB
  • 052200Z AUTO 01010KT 9999 -RA SCT060/// BKN075/// BKN090/// 11/10 Q0994 TEMPO 5000 SHRA SCT030CB
  • 052130Z AUTO 31007KT 280V350 9000 -RA OVC055/// 12/10 Q0994 RERA TEMPO 5000 SHRA SCT030CB

TAF TAF NZAA
Valid from the 06 at 00:00 until the 07 at 00:00 UTC


052328Z 0600/0700 36008KT 9999 -SHRA FEW035 BKN050
TEMPO 0600/0613 5000 SHRA SCT020CB
BECMG 0602/0604 30012KT
PROB30
TEMPO 0602/0603 3000 TSRAGS BKN008 SCT020CB
TEMPO 0607/0613 6000 SHRA FEW020TCU
PROB30
TEMPO 0607/0613 3000 TSRAGS BKN008 SCT020CB
BECMG 0611/0613 22012KT
BECMG 0615/0617 22016G28KT
NZZC FIR / Oceania



MET'MAP, your aeronautical weather chart ! - Copyright ORBIFLY December 2007 - Disclaimer

ORBIFLY MET'MAP TEAM :

Programming & Development : Alexandra Zaïnal
Concept & original design : Baudouin d'Aumeries
Assistance for programming : Marc-Olivier Méhu
Technical & hardware support : Manuel Goepfert

Contact : metmap@orbifly.com




SOURCES & CREDITS :

   NOAA       Earth
Advisory